Vancouver International Airport

CYVR · 不列颠哥伦比亚, 加拿大

罗盘
风向 的 风向 150° 溫哥華國際機場 8L/26R
风向 到 风: 15 kt, 阵阵 26 kt, 4 beaufort

10 kt

11 kt
改变
0 2.000 4.000 6.000 8.000 10.000
FEW 6.000 ft
BKN 8.000 ft
METAR CYVR 270200Z 15015G26KT 15SM FEW060 BKN080 07/06 A3010 RMK SC1AC4 SLP194

METAR 溫哥華國際機場 - CYVR/YVR

溫哥華國際機場是,加拿大中的大型机场。 该机场有3条跑道: 8L/26R, 8R/26L 和 13/31. 该领域的国际民航组织标志是CYVR 它的国际航空运输协会代码是YVR.

这份报告是针对2022年11月26日 18:00, 当地时间在溫哥華國際機場进行的。

机场观察

风向为150°,速度为15 kt。 已测得26 kt的阵风。

可见度为15 mi。

有几云在6.000 ft的高度 和 碎云在8.000 ft的高度。 破损或更高的上限为8.000 ft。

温度为7 °C,阵风为2 °C。 露点为6 °C,相对湿度为93%。 海平面上的气压为30,10 inHg (QNH)。

白天

今天,太阳从07:41升起,在16:19降落。 这适用于溫哥華國際機場,世界夏令时可能有所不同。 当地时间与世界标准时间之间的时差为-8 小时。 当前,没有夏令时有效。

公司介绍

我们没有关于这个机场的公司信息。

体会

到Vliegles.nl去找飞行课程,跳伞和其他飞行体验。 浏览页面,了解溫哥華國際機場附近所有可用的活动。 你也可以使用搜索功能来寻找你所在地附近的特定飞行课程、跳伞或其他飞行体验。

跑道

Id 标题 侧风 逆风 侧风 %
8L/26R 100°-280° 11-20 kt 10-17 kt 77 %
8R/26L 100°-280° 11-20 kt 10-17 kt 77 %
13/31 142°-322° 2-4 kt 15-26 kt 14 %

逆风成分最大的方向会被突出显示,并用于横风计算。 这并不一定意味着这个方向在使用。

乌云

6.000 ft FEW 几云
8.000 ft BKN 碎云

温度 & 天气

温度 7 °C
露点 6 °C
相对湿度 93%
风寒 2 °C
Kp-index 0 (0-9)

评论

SLP194海平面压力为30,10 inHg (30,10 inHg)
SC1AC4

白天

日出
07:41 (12:31)
中午
12:00
日落
16:19

小工具

你想在你的网站上有一个关于溫哥華國際機場的当前航空天气(METAR)的小部件吗?

显示HTML代码

我们和第三方通过cookies跟踪您在我们网站上的互联网行为。如果你继续,我们认为你同意我们的饼干政策